Time;durP1;ratioP1;P1;durP2;ratioP2;P2;SDS_P1;SDS_P2;PMS_P1;PMS_P2;Temp;Humidity;BMP_temperature;BMP_pressure;BME280_temperature;BME280_humidity;BME280_pressure;Samples;Min_cycle;Max_cycle;Signal;HPM_P1;HPM_P2
2022/09/11 00:01:21;;;;;;;;;;;;;;;15.82;59.35;98981.63;5074160;28;19939;-51
2022/09/11 00:03:46;;;;;;;;;;;;;;;15.56;59.96;98986.22;5074340;28;20003;-51
2022/09/11 00:06:14;;;;;;;;;;;;;;;15.43;60.50;98983.75;5056324;28;20462;-50
2022/09/11 00:08:41;;;;;;;;;;;;;;;15.28;60.92;98987.59;5073880;28;19917;-51
2022/09/11 00:11:10;;;;;;;;;;;;;;;15.32;60.78;98988.78;5055989;28;19924;-51
2022/09/11 00:13:37;;;;;;;;;;;;;;;15.60;60.72;98984.75;5074206;28;20394;-51
2022/09/11 00:16:04;;;;;;;;;;;;;;;15.82;60.68;98982.41;5055800;28;19927;-51
2022/09/11 00:18:30;;;;;;;;;;;;;;;15.78;60.37;98990.00;5056296;28;20306;-51
2022/09/11 00:20:57;;;;;;;;;;;;;;;15.89;60.13;98985.75;5073716;28;19917;-51
2022/09/11 00:23:23;;;;;;;;;;;;;;;15.96;59.96;98988.31;5055737;28;19920;-51
2022/09/11 00:25:49;;;;;;;;;;;;;;;15.97;59.47;98989.91;5052053;28;19925;-51
2022/09/11 00:28:23;;;;;;;;;;;;;;;16.14;59.64;98982.13;5052213;28;19917;-51
2022/09/11 00:31:02;;;;;;;;;;;;;;;16.37;59.29;98982.09;5051809;28;20302;-51
2022/09/11 00:33:27;;;;;;;;;;;;;;;16.49;58.91;98982.09;5053467;28;19916;-51
2022/09/11 00:35:57;;;;;;;;;;;;;;;16.50;58.51;98980.25;5052143;28;19932;-51
2022/09/11 00:38:22;;;;;;;;;;;;;;;16.33;58.21;98978.31;5053400;28;20395;-51
2022/09/11 00:40:48;;;;;;;;;;;;;;;16.32;58.49;98976.72;5053392;28;19923;-49
2022/09/11 00:43:15;;;;;;;;;;;;;;;16.46;58.57;98977.28;5053310;28;20418;-51
2022/09/11 00:45:42;;;;;;;;;;;;;;;16.48;58.19;98975.22;5053230;28;20483;-51
2022/09/11 00:48:12;;;;;;;;;;;;;;;16.25;58.23;98976.00;5053188;28;20393;-51
2022/09/11 00:50:37;;;;;;;;;;;;;;;15.87;58.67;98971.13;5051872;28;20441;-49
2022/09/11 00:53:08;;;;;;;;;;;;;;;15.69;59.40;98972.78;5051825;28;19921;-50
2022/09/11 00:55:40;;;;;;;;;;;;;;;15.62;59.63;98979.22;5053169;28;20007;-50
2022/09/11 00:58:11;;;;;;;;;;;;;;;15.78;59.96;98979.41;5053039;28;20007;-48
2022/09/11 01:00:38;;;;;;;;;;;;;;;15.80;59.79;98973.09;5051682;28;19987;-52
2022/09/11 01:03:04;;;;;;;;;;;;;;;15.63;59.87;98970.25;5051884;28;19966;-51
2022/09/11 01:05:33;;;;;;;;;;;;;;;15.54;60.66;98972.41;5052924;28;19917;-49
2022/09/11 01:07:59;;;;;;;;;;;;;;;15.31;60.96;98979.25;5052842;28;19987;-50
2022/09/11 01:10:34;;;;;;;;;;;;;;;15.03;62.08;98976.31;5051528;28;20390;-49
2022/09/11 01:13:16;;;;;;;;;;;;;;;14.68;63.16;98969.81;5051525;28;20298;-48
2022/09/11 01:15:46;;;;;;;;;;;;;;;14.43;64.03;98972.50;5052770;28;20020;-48
2022/09/11 01:18:26;;;;;;;;;;;;;;;14.27;64.92;98971.22;5052672;28;19917;-49
2022/09/11 01:20:55;;;;;;;;;;;;;;;14.19;64.88;98972.28;5052617;28;19917;-48
2022/09/11 01:23:20;;;;;;;;;;;;;;;14.30;64.66;98970.75;5052559;28;19928;-51
2022/09/11 01:25:49;;;;;;;;;;;;;;;14.56;64.31;98966.28;5060709;28;19920;-50
2022/09/11 01:28:19;;;;;;;;;;;;;;;14.84;63.83;98970.25;5072413;28;19921;-51
2022/09/11 01:30:49;;;;;;;;;;;;;;;14.97;63.38;98970.13;5054535;28;19923;-51
2022/09/11 01:33:21;;;;;;;;;;;;;;;14.80;62.98;98961.97;5054482;28;19923;-50
2022/09/11 01:35:51;;;;;;;;;;;;;;;14.66;63.01;98965.78;5072412;28;19969;-51
2022/09/11 01:38:22;;;;;;;;;;;;;;;14.56;63.61;98961.00;5072584;28;20356;-51
2022/09/11 01:40:48;;;;;;;;;;;;;;;14.38;64.61;98957.28;5072645;28;19920;-49
2022/09/11 01:43:21;;;;;;;;;;;;;;;14.29;65.01;98958.59;5071493;28;20007;-49
2022/09/11 01:45:48;;;;;;;;;;;;;;;14.21;65.58;98956.25;5072295;28;19923;-51
2022/09/11 01:48:16;;;;;;;;;;;;;;;14.21;66.27;98955.44;5054135;28;19928;-49
2022/09/11 01:50:44;;;;;;;;;;;;;;;14.05;67.29;98952.31;5072257;28;19925;-49
2022/09/11 01:53:12;;;;;;;;;;;;;;;13.93;68.09;98957.47;5054156;28;20418;-50
2022/09/11 01:55:47;;;;;;;;;;;;;;;13.86;68.62;98956.72;5072190;28;20386;-51
2022/09/11 01:58:26;;;;;;;;;;;;;;;13.91;70.29;98948.19;5072057;28;20306;-48
2022/09/11 02:00:54;;;;;;;;;;;;;;;13.58;70.85;98949.19;5072092;28;19966;-51
2022/09/11 02:03:30;;;;;;;;;;;;;;;13.28;71.85;98949.78;5054076;28;19950;-51
2022/09/11 02:05:55;;;;;;;;;;;;;;;13.19;72.45;98948.41;5054036;28;20307;-51
2022/09/11 02:08:29;;;;;;;;;;;;;;;13.32;72.00;98945.72;5054016;28;19923;-52
2022/09/11 02:10:57;;;;;;;;;;;;;;;13.39;72.28;98945.69;5053910;28;19916;-51
2022/09/11 02:13:42;;;;;;;;;;;;;;;13.44;72.27;98942.41;5072056;28;19920;-50
2022/09/11 02:16:17;;;;;;;;;;;;;;;13.51;72.44;98949.25;5071886;28;19916;-52
2022/09/11 02:18:46;;;;;;;;;;;;;;;13.53;73.51;98941.13;5071961;28;19920;-50
2022/09/11 02:21:11;;;;;;;;;;;;;;;13.41;74.44;98942.84;5053856;28;20006;-51
2022/09/11 02:23:37;;;;;;;;;;;;;;;13.31;75.16;98938.03;5071929;28;19979;-50
2022/09/11 02:26:04;;;;;;;;;;;;;;;13.14;75.72;98933.22;5071511;28;20452;-50
2022/09/11 02:28:30;;;;;;;;;;;;;;;12.89;76.55;98930.50;5071698;28;19945;-51
2022/09/11 02:30:55;;;;;;;;;;;;;;;12.69;76.77;98940.28;5053782;28;20018;-51
2022/09/11 02:33:37;;;;;;;;;;;;;;;12.58;77.22;98933.84;5053779;28;20007;-51
2022/09/11 02:36:21;;;;;;;;;;;;;;;12.51;77.41;98928.59;5053761;28;20033;-52
2022/09/11 02:38:54;;;;;;;;;;;;;;;12.50;78.00;98941.97;5071775;28;20025;-50
2022/09/11 02:41:27;;;;;;;;;;;;;;;12.48;77.96;98936.13;5071775;28;19916;-51
2022/09/11 02:43:56;;;;;;;;;;;;;;;12.45;77.89;98934.69;5053720;28;19920;-51
2022/09/11 02:46:24;;;;;;;;;;;;;;;12.47;78.28;98937.13;5071740;28;19923;-51
2022/09/11 02:48:59;;;;;;;;;;;;;;;12.45;77.96;98932.03;5071617;28;19916;-50
2022/09/11 02:51:51;;;;;;;;;;;;;;;12.47;78.30;98932.66;5053618;28;19916;-51
2022/09/11 02:54:23;;;;;;;;;;;;;;;12.47;77.82;98934.47;5071083;28;19916;-51
2022/09/11 02:56:49;;;;;;;;;;;;;;;12.43;78.02;98936.72;5075293;28;20382;-50
2022/09/11 02:59:20;;;;;;;;;;;;;;;12.39;78.25;98931.06;5075320;28;19924;-51
2022/09/11 03:01:47;;;;;;;;;;;;;;;12.38;77.91;98936.53;5075288;28;19940;-51
2022/09/11 03:04:14;;;;;;;;;;;;;;;12.38;77.86;98937.34;5075245;28;20390;-51
2022/09/11 03:06:42;;;;;;;;;;;;;;;12.36;77.91;98931.47;5075186;28;19916;-51
2022/09/11 03:09:08;;;;;;;;;;;;;;;12.32;77.76;98932.09;5075062;28;19917;-50
2022/09/11 03:11:34;;;;;;;;;;;;;;;12.30;77.84;98924.41;5075071;28;19917;-51
2022/09/11 03:14:00;;;;;;;;;;;;;;;12.33;77.95;98931.06;5075276;28;19920;-51
2022/09/11 03:16:25;;;;;;;;;;;;;;;12.45;77.90;98932.03;5057029;28;19962;-51
2022/09/11 03:18:51;;;;;;;;;;;;;;;12.55;77.83;98927.16;5056965;28;19924;-51
2022/09/11 03:21:16;;;;;;;;;;;;;;;12.69;78.22;98920.03;5074898;28;19916;-51
2022/09/11 03:23:42;;;;;;;;;;;;;;;12.84;78.07;98917.16;5074888;28;19920;-51
2022/09/11 03:26:08;;;;;;;;;;;;;;;13.13;78.14;98922.88;5074555;28;19952;-52
2022/09/11 03:28:34;;;;;;;;;;;;;;;13.29;77.73;98919.78;5056672;28;19970;-51
2022/09/11 03:30:59;;;;;;;;;;;;;;;13.29;77.14;98917.16;5074708;28;19916;-51
2022/09/11 03:33:25;;;;;;;;;;;;;;;13.35;77.19;98923.41;5074669;28;19923;-52
2022/09/11 03:35:50;;;;;;;;;;;;;;;13.61;77.81;98922.41;5074609;28;19920;-51
2022/09/11 03:38:16;;;;;;;;;;;;;;;14.01;77.62;98919.47;5074638;28;19917;-52
2022/09/11 03:40:43;;;;;;;;;;;;;;;14.38;76.96;98925.59;5074567;28;19916;-51
2022/09/11 03:43:08;;;;;;;;;;;;;;;14.65;76.44;98916.59;5074499;28;19961;-51
2022/09/11 03:45:34;;;;;;;;;;;;;;;14.86;75.55;98920.63;5074462;28;20011;-51
2022/09/11 03:48:00;;;;;;;;;;;;;;;14.78;74.94;98916.47;5056337;28;19916;-51
2022/09/11 03:50:25;;;;;;;;;;;;;;;14.73;75.11;98919.78;5074409;28;20371;-51
2022/09/11 03:52:51;;;;;;;;;;;;;;;14.43;73.73;98908.28;5056331;28;19956;-51
2022/09/11 03:55:16;;;;;;;;;;;;;;;14.08;72.99;98909.63;5056296;28;19964;-51
2022/09/11 03:57:42;;;;;;;;;;;;;;;13.70;72.80;98918.50;5056349;28;19917;-51
2022/09/11 04:00:09;;;;;;;;;;;;;;;13.39;73.24;98917.50;5074153;28;19920;-51
2022/09/11 04:02:34;;;;;;;;;;;;;;;13.22;73.86;98913.72;5074139;28;20381;-50
2022/09/11 04:05:03;;;;;;;;;;;;;;;13.28;74.71;98919.97;5073188;28;20137;-50
2022/09/11 04:07:30;;;;;;;;;;;;;;;13.46;74.97;98919.28;5074057;28;19939;-51
2022/09/11 04:09:56;;;;;;;;;;;;;;;13.62;74.87;98917.94;5056012;28;19939;-50
2022/09/11 04:12:21;;;;;;;;;;;;;;;13.74;74.90;98921.50;5055918;28;19942;-51
2022/09/11 04:14:49;;;;;;;;;;;;;;;13.90;75.12;98915.69;5073872;28;20024;-50
2022/09/11 04:17:15;;;;;;;;;;;;;;;14.13;75.18;98914.28;5039549;28;19916;-51
2022/09/11 04:19:40;;;;;;;;;;;;;;;14.19;74.77;98913.41;5073816;28;19961;-50
2022/09/11 04:22:06;;;;;;;;;;;;;;;14.05;74.06;98920.66;5055732;28;19924;-50
2022/09/11 04:24:31;;;;;;;;;;;;;;;14.02;74.97;98917.63;5055757;28;19923;-51
2022/09/11 04:26:59;;;;;;;;;;;;;;;13.96;74.39;98920.13;5073417;28;19921;-50
2022/09/11 04:29:25;;;;;;;;;;;;;;;13.68;73.02;98928.47;5073490;28;19927;-50
2022/09/11 04:31:51;;;;;;;;;;;;;;;13.47;73.99;98924.34;5073529;28;20271;-50
2022/09/11 04:34:16;;;;;;;;;;;;;;;13.27;73.43;98926.25;5055493;28;19923;-51
2022/09/11 04:36:42;;;;;;;;;;;;;;;13.14;73.62;98919.25;5055370;28;19970;-51
2022/09/11 04:39:08;;;;;;;;;;;;;;;13.06;73.89;98927.38;5073327;28;19994;-51
2022/09/11 04:41:33;;;;;;;;;;;;;;;12.99;74.42;98925.56;5073326;28;20394;-50
2022/09/11 04:43:59;;;;;;;;;;;;;;;13.13;75.17;98931.59;5073282;28;19923;-50
2022/09/11 04:46:25;;;;;;;;;;;;;;;13.36;74.86;98938.19;5055282;28;19917;-50
2022/09/11 04:48:52;;;;;;;;;;;;;;;13.30;73.89;98937.22;5073186;28;20306;-51
2022/09/11 04:51:20;;;;;;;;;;;;;;;13.31;74.49;98940.66;5073359;28;20378;-51
2022/09/11 04:53:45;;;;;;;;;;;;;;;13.40;74.55;98934.13;5055191;28;19966;-50
2022/09/11 04:56:13;;;;;;;;;;;;;;;13.45;74.45;98933.50;5073065;28;20006;-51
2022/09/11 04:58:39;;;;;;;;;;;;;;;13.46;73.82;98935.09;5054984;28;19916;-50
2022/09/11 05:01:09;;;;;;;;;;;;;;;13.52;73.47;98932.44;5072940;28;20003;-50
2022/09/11 05:03:35;;;;;;;;;;;;;;;13.62;73.39;98931.94;5073238;28;20313;-50
2022/09/11 05:06:04;;;;;;;;;;;;;;;13.54;72.78;98932.19;5072895;28;19916;-50
2022/09/11 05:08:31;;;;;;;;;;;;;;;13.58;73.13;98934.22;5072881;28;19924;-50
2022/09/11 05:10:58;;;;;;;;;;;;;;;13.69;73.27;98940.63;5072778;28;19931;-51
2022/09/11 05:13:24;;;;;;;;;;;;;;;13.77;72.70;98936.91;5072752;28;19926;-51
2022/09/11 05:15:50;;;;;;;;;;;;;;;13.75;72.31;98944.22;5054622;28;19916;-51
2022/09/11 05:18:15;;;;;;;;;;;;;;;13.56;71.97;98941.53;5072582;28;20034;-51
2022/09/11 05:20:40;;;;;;;;;;;;;;;13.40;72.02;98936.78;5054679;28;20007;-50
2022/09/11 05:23:06;;;;;;;;;;;;;;;13.29;72.03;98942.69;5054637;28;20306;-50
2022/09/11 05:25:31;;;;;;;;;;;;;;;13.11;71.86;98946.00;5050998;28;19971;-51
2022/09/11 05:27:57;;;;;;;;;;;;;;;13.06;72.49;98941.38;5051262;28;19924;-50
2022/09/11 05:30:22;;;;;;;;;;;;;;;13.56;72.57;98951.25;5051240;28;19920;-51
2022/09/11 05:32:53;;;;;;;;;;;;;;;14.21;70.79;98945.69;5052445;28;19916;-50
2022/09/11 05:35:19;;;;;;;;;;;;;;;14.84;69.39;98949.13;5052502;28;20003;-51
2022/09/11 05:37:45;;;;;;;;;;;;;;;15.31;66.87;98941.41;5052301;28;19921;-51
2022/09/11 05:40:11;;;;;;;;;;;;;;;15.60;66.68;98945.06;5052414;28;19924;-51
2022/09/11 05:42:37;;;;;;;;;;;;;;;16.09;64.20;98940.44;5052311;28;19951;-51
2022/09/11 05:45:03;;;;;;;;;;;;;;;16.20;62.89;98949.44;5051000;28;20008;-51
2022/09/11 05:47:32;;;;;;;;;;;;;;;16.35;62.74;98954.25;5051024;28;19964;-51
2022/09/11 05:50:02;;;;;;;;;;;;;;;16.99;62.44;98953.50;5052473;28;19948;-51
2022/09/11 05:52:29;;;;;;;;;;;;;;;17.58;60.62;98949.50;5052228;28;20003;-51
2022/09/11 05:54:55;;;;;;;;;;;;;;;18.09;59.92;98952.25;5052164;28;19920;-51
2022/09/11 05:57:21;;;;;;;;;;;;;;;18.55;58.01;98950.22;5052148;28;19917;-51
2022/09/11 05:59:46;;;;;;;;;;;;;;;19.17;57.11;98945.66;5052032;28;19971;-50
2022/09/11 06:02:12;;;;;;;;;;;;;;;19.72;54.49;98946.50;5050793;28;19970;-51
2022/09/11 06:04:38;;;;;;;;;;;;;;;20.09;53.40;98945.69;5052016;28;19928;-51
2022/09/11 06:07:03;;;;;;;;;;;;;;;20.23;52.51;98943.38;5052051;28;19916;-50
2022/09/11 06:09:29;;;;;;;;;;;;;;;20.28;53.08;98938.06;5050746;28;19986;-51
2022/09/11 06:11:55;;;;;;;;;;;;;;;20.16;50.97;98943.59;5051988;28;20354;-52
2022/09/11 06:14:24;;;;;;;;;;;;;;;19.88;52.75;98931.41;5050719;28;20019;-50
2022/09/11 06:16:49;;;;;;;;;;;;;;;19.89;52.63;98941.03;5051927;28;20459;-49
2022/09/11 06:19:15;;;;;;;;;;;;;;;19.55;52.93;98936.72;5050612;28;20019;-49
2022/09/11 06:21:41;;;;;;;;;;;;;;;19.51;54.42;98942.81;5052130;28;19917;-47
2022/09/11 06:24:10;;;;;;;;;;;;;;;20.24;54.29;98939.66;5052212;28;20372;-49
2022/09/11 06:26:36;;;;;;;;;;;;;;;21.11;52.73;98932.06;5066872;28;19990;-50
2022/09/11 06:29:02;;;;;;;;;;;;;;;21.86;51.29;98924.41;5055928;28;19917;-48
2022/09/11 06:31:27;;;;;;;;;;;;;;;22.58;49.74;98931.50;5041341;28;20430;-48
2022/09/11 06:33:52;;;;;;;;;;;;;;;23.01;49.25;98924.63;5075785;28;19924;-48
2022/09/11 06:36:19;;;;;;;;;;;;;;;23.52;46.39;98927.00;5075652;28;19920;-47
2022/09/11 06:38:45;;;;;;;;;;;;;;;24.04;45.48;98919.34;5075584;28;19921;-49
2022/09/11 06:41:15;;;;;;;;;;;;;;;24.63;42.01;98917.41;5057720;28;19916;-49
2022/09/11 06:43:41;;;;;;;;;;;;;;;24.80;42.26;98914.22;5075553;28;20011;-47
2022/09/11 06:46:13;;;;;;;;;;;;;;;25.06;40.01;98916.56;5075599;28;19923;-47
2022/09/11 06:48:43;;;;;;;;;;;;;;;25.16;41.20;98921.81;5057535;28;19920;-49
2022/09/11 06:51:10;;;;;;;;;;;;;;;26.05;40.51;98914.78;5075510;28;19916;-47
2022/09/11 06:53:36;;;;;;;;;;;;;;;26.84;39.42;98922.69;5075445;28;19917;-48
2022/09/11 06:56:02;;;;;;;;;;;;;;;27.38;38.75;98928.22;5075309;28;19940;-49
2022/09/11 06:58:29;;;;;;;;;;;;;;;28.08;37.72;98923.31;5075290;28;19917;-47
2022/09/11 07:01:02;;;;;;;;;;;;;;;28.87;36.41;98922.44;5075285;28;19916;-48
2022/09/11 07:03:27;;;;;;;;;;;;;;;29.46;34.83;98923.94;5075234;28;20338;-48
2022/09/11 07:05:53;;;;;;;;;;;;;;;30.00;34.30;98924.31;5075155;28;20011;-48
2022/09/11 07:08:19;;;;;;;;;;;;;;;30.58;32.95;98923.94;5075190;28;19917;-50
2022/09/11 07:10:44;;;;;;;;;;;;;;;30.93;33.54;98926.44;5075097;28;19917;-49
2022/09/11 07:13:10;;;;;;;;;;;;;;;31.25;32.58;98928.44;5075076;28;20011;-49
2022/09/11 07:15:35;;;;;;;;;;;;;;;31.54;31.89;98928.69;5056966;28;19922;-48
2022/09/11 07:18:01;;;;;;;;;;;;;;;31.76;31.73;98930.22;5075168;28;19927;-49
2022/09/11 07:20:26;;;;;;;;;;;;;;;32.09;32.15;98924.75;5074916;28;20444;-49
2022/09/11 07:22:51;;;;;;;;;;;;;;;32.25;31.41;98935.75;5074912;28;20004;-49
2022/09/11 07:25:17;;;;;;;;;;;;;;;32.16;31.02;98938.56;5074575;28;19974;-50
2022/09/11 07:27:43;;;;;;;;;;;;;;;32.08;30.73;98939.47;5074868;28;19974;-48
2022/09/11 07:30:08;;;;;;;;;;;;;;;31.75;30.51;98931.34;5056763;28;19971;-48
2022/09/11 07:32:34;;;;;;;;;;;;;;;31.75;30.50;98936.75;5074693;28;19920;-48
2022/09/11 07:35:01;;;;;;;;;;;;;;;32.35;29.09;98935.28;5074937;28;20298;-49
2022/09/11 07:37:27;;;;;;;;;;;;;;;32.87;28.27;98933.81;5074539;28;19920;-49
2022/09/11 07:39:52;;;;;;;;;;;;;;;33.40;27.61;98940.03;5073195;28;19962;-49
2022/09/11 07:42:17;;;;;;;;;;;;;;;33.55;27.01;98929.53;5056497;28;20306;-46
2022/09/11 07:44:43;;;;;;;;;;;;;;;33.73;26.61;98930.03;5074449;28;20049;-48
2022/09/11 07:47:08;;;;;;;;;;;;;;;33.77;26.62;98933.66;5074387;28;19920;-47
2022/09/11 07:49:34;;;;;;;;;;;;;;;33.78;26.73;98925.09;5074421;28;20309;-48
2022/09/11 07:52:02;;;;;;;;;;;;;;;33.85;26.23;98923.72;5073106;28;20376;-48
2022/09/11 07:54:27;;;;;;;;;;;;;;;33.91;26.25;98931.28;5074310;28;19917;-46
2022/09/11 07:56:53;;;;;;;;;;;;;;;34.13;25.69;98924.44;5074242;28;19935;-47
2022/09/11 07:59:21;;;;;;;;;;;;;;;34.56;25.31;98920.00;5074227;28;20375;-48
2022/09/11 08:01:47;;;;;;;;;;;;;;;34.89;24.73;98921.53;5074160;28;19929;-48
2022/09/11 08:04:13;;;;;;;;;;;;;;;35.34;24.11;98924.81;5056126;28;20437;-47
2022/09/11 08:06:39;;;;;;;;;;;;;;;35.17;24.15;98918.63;5073973;28;19927;-48
2022/09/11 08:09:06;;;;;;;;;;;;;;;35.23;24.41;98921.06;5074045;28;19917;-49
2022/09/11 08:11:35;;;;;;;;;;;;;;;35.30;24.11;98927.47;5073913;28;19929;-50
2022/09/11 08:14:00;;;;;;;;;;;;;;;35.67;23.70;98924.28;5055931;28;19916;-49
2022/09/11 08:16:26;;;;;;;;;;;;;;;35.85;23.57;98930.06;5073891;28;19966;-49
2022/09/11 08:18:52;;;;;;;;;;;;;;;36.01;22.66;98919.00;5073797;28;20305;-49
2022/09/11 08:21:18;;;;;;;;;;;;;;;36.14;23.09;98920.41;5055746;28;19920;-49
2022/09/11 08:23:44;;;;;;;;;;;;;;;36.22;22.63;98921.31;5073682;28;19924;-49
2022/09/11 08:26:14;;;;;;;;;;;;;;;36.30;22.45;98924.94;5073421;28;19921;-48
2022/09/11 08:28:42;;;;;;;;;;;;;;;36.32;22.36;98931.66;5073600;28;19917;-48
2022/09/11 08:31:07;;;;;;;;;;;;;;;36.35;23.29;98922.69;5056052;28;19921;-48
2022/09/11 08:33:33;;;;;;;;;;;;;;;36.57;22.91;98923.81;5073756;28;19925;-49
2022/09/11 08:36:01;;;;;;;;;;;;;;;36.09;22.70;98917.19;5073548;28;19923;-46
2022/09/11 08:38:27;;;;;;;;;;;;;;;35.09;22.93;98916.88;5073411;28;19917;-48
2022/09/11 08:40:52;;;;;;;;;;;;;;;34.01;24.27;98916.38;5055441;28;19923;-49
2022/09/11 08:43:23;;;;;;;;;;;;;;;34.48;24.18;98923.72;5073297;28;20002;-48
2022/09/11 08:45:50;;;;;;;;;;;;;;;34.49;24.00;98921.78;5073333;28;19917;-49
2022/09/11 08:48:18;;;;;;;;;;;;;;;34.19;24.39;98927.72;5073269;28;19959;-48
2022/09/11 08:50:43;;;;;;;;;;;;;;;34.97;23.86;98925.19;5072834;28;19920;-48
2022/09/11 08:53:14;;;;;;;;;;;;;;;35.45;23.73;98920.34;5073423;28;20023;-49
2022/09/11 08:55:45;;;;;;;;;;;;;;;35.40;23.32;98924.16;5073192;28;19920;-50
2022/09/11 08:58:14;;;;;;;;;;;;;;;35.25;23.81;98922.28;5038519;28;19938;-49
2022/09/11 09:00:49;;;;;;;;;;;;;;;35.04;23.99;98930.03;5072990;28;19917;-49
2022/09/11 09:03:15;;;;;;;;;;;;;;;35.46;23.83;98934.78;5073054;28;20340;-48
2022/09/11 09:05:44;;;;;;;;;;;;;;;35.65;23.69;98936.69;5072889;28;19947;-48
2022/09/11 09:08:10;;;;;;;;;;;;;;;35.99;23.56;98935.75;5072824;28;19920;-48
2022/09/11 09:10:52;;;;;;;;;;;;;;;35.99;23.53;98941.22;5072861;28;19916;-49
2022/09/11 09:13:23;;;;;;;;;;;;;;;35.14;24.07;98952.06;5054875;28;19987;-49
2022/09/11 09:15:55;;;;;;;;;;;;;;;34.19;24.84;98938.63;5054848;28;19920;-49
2022/09/11 09:18:40;;;;;;;;;;;;;;;34.14;24.99;98944.31;5072904;28;19927;-50
2022/09/11 09:21:15;;;;;;;;;;;;;;;34.00;24.64;98940.06;5054158;28;20010;-49
2022/09/11 09:23:43;;;;;;;;;;;;;;;34.21;24.38;98936.34;5072605;28;19916;-49
2022/09/11 09:26:16;;;;;;;;;;;;;;;34.58;23.94;98938.75;5072420;28;20441;-48
2022/09/11 09:28:45;;;;;;;;;;;;;;;35.31;24.00;98936.44;5072502;28;19920;-48
2022/09/11 09:31:16;;;;;;;;;;;;;;;36.26;22.58;98952.25;5071760;28;20295;-48
2022/09/11 09:33:50;;;;;;;;;;;;;;;36.82;22.21;98937.06;5054537;28;20082;-49
2022/09/11 09:36:21;;;;;;;;;;;;;;;37.34;22.07;98929.91;5072626;28;19970;-50
2022/09/11 09:38:48;;;;;;;;;;;;;;;37.71;20.72;98937.38;5072633;28;20310;-49
2022/09/11 09:41:22;;;;;;;;;;;;;;;38.06;20.98;98933.41;5072298;28;20014;-49
2022/09/11 09:44:00;;;;;;;;;;;;;;;38.83;20.65;98930.00;5054388;28;19924;-48
2022/09/11 09:46:35;;;;;;;;;;;;;;;39.28;20.25;98927.84;5072311;28;20325;-50
2022/09/11 09:49:00;;;;;;;;;;;;;;;39.13;20.42;98925.06;5072281;28;19956;-51
2022/09/11 09:51:26;;;;;;;;;;;;;;;38.90;19.86;98921.81;5054253;28;19969;-48
2022/09/11 09:53:53;;;;;;;;;;;;;;;38.87;20.27;98917.09;5072244;28;19920;-50
2022/09/11 09:56:20;;;;;;;;;;;;;;;38.98;20.13;98917.16;5072196;28;20007;-49
2022/09/11 09:59:08;;;;;;;;;;;;;;;39.34;19.95;98912.56;5072153;28;19916;-49
2022/09/11 10:01:42;;;;;;;;;;;;;;;39.73;19.85;98909.13;5043219;28;19954;-49
2022/09/11 10:04:16;;;;;;;;;;;;;;;39.85;19.39;98913.47;5071290;28;20007;-49
2022/09/11 10:06:44;;;;;;;;;;;;;;;40.06;18.80;98901.69;5054027;28;20008;-49
2022/09/11 10:09:27;;;;;;;;;;;;;;;39.81;18.53;98902.47;5072136;28;20344;-49
2022/09/11 10:12:00;;;;;;;;;;;;;;;40.08;18.41;98893.84;5071960;28;19928;-51
2022/09/11 10:14:26;;;;;;;;;;;;;;;39.85;18.87;98891.47;5072315;28;19917;-50
2022/09/11 10:16:53;;;;;;;;;;;;;;;39.97;18.80;98890.31;5071919;28;20433;-51
2022/09/11 10:19:38;;;;;;;;;;;;;;;40.04;18.60;98887.56;5071896;28;19917;-49
2022/09/11 10:22:33;;;;;;;;;;;;;;;40.20;18.65;98885.19;5071872;28;20019;-50
2022/09/11 10:25:04;;;;;;;;;;;;;;;40.38;18.61;98876.16;5058302;28;19926;-49
2022/09/11 10:27:33;;;;;;;;;;;;;;;40.34;18.32;98865.16;5071955;28;19964;-50
2022/09/11 10:29:59;;;;;;;;;;;;;;;40.64;18.52;98864.66;5072178;28;20366;-49
2022/09/11 10:32:25;;;;;;;;;;;;;;;40.79;18.11;98859.13;5053839;28;19963;-51
2022/09/11 10:34:52;;;;;;;;;;;;;;;40.68;17.83;98854.41;5053813;28;19920;-49
2022/09/11 10:37:23;;;;;;;;;;;;;;;40.71;17.55;98859.13;5071818;28;19916;-48
2022/09/11 10:39:48;;;;;;;;;;;;;;;40.86;17.52;98857.13;5053852;28;20328;-49
2022/09/11 10:42:21;;;;;;;;;;;;;;;41.11;17.45;98853.44;5071747;28;19920;-47
2022/09/11 10:44:47;;;;;;;;;;;;;;;41.32;17.69;98850.59;5071715;28;19970;-48
2022/09/11 10:47:23;;;;;;;;;;;;;;;41.45;17.44;98847.34;5071630;28;19916;-49
2022/09/11 10:49:49;;;;;;;;;;;;;;;41.40;16.44;98843.06;5071733;28;19917;-48
2022/09/11 10:52:17;;;;;;;;;;;;;;;40.82;16.91;98847.31;5071659;28;19923;-49
2022/09/11 10:54:52;;;;;;;;;;;;;;;40.65;17.27;98846.16;5071929;28;19916;-49
2022/09/11 10:57:24;;;;;;;;;;;;;;;40.63;17.47;98843.84;5071568;28;19917;-48
2022/09/11 10:59:58;;;;;;;;;;;;;;;40.42;17.67;98841.16;5071876;28;19916;-47
2022/09/11 11:02:32;;;;;;;;;;;;;;;40.24;17.31;98832.94;5071588;28;20011;-49
2022/09/11 11:05:03;;;;;;;;;;;;;;;39.78;17.97;98845.53;5071834;28;20357;-50
2022/09/11 11:07:39;;;;;;;;;;;;;;;39.73;17.68;98830.22;5071570;28;19916;-48
2022/09/11 11:10:15;;;;;;;;;;;;;;;39.52;17.95;98830.22;5071445;28;19916;-48
2022/09/11 11:12:44;;;;;;;;;;;;;;;39.33;17.87;98828.63;5071599;28;19917;-49
2022/09/11 11:15:23;;;;;;;;;;;;;;;39.60;17.43;98826.28;5073550;28;19981;-49
2022/09/11 11:18:00;;;;;;;;;;;;;;;39.66;17.59;98834.94;5057042;28;19970;-49
2022/09/11 11:21:00;;;;;;;;;;;;;;;39.55;17.37;98827.47;5074996;28;19916;-49
2022/09/11 11:23:32;;;;;;;;;;;;;;;39.47;17.39;98828.66;5012973;28;19955;-48
2022/09/11 11:26:18;;;;;;;;;;;;;;;38.76;17.51;98826.50;5012697;28;20048;-49
2022/09/11 11:28:59;;;;;;;;;;;;;;;38.53;18.26;98821.31;5012574;28;20179;-49
2022/09/11 11:31:43;;;;;;;;;;;;;;;38.82;18.04;98824.94;5012846;28;19965;-49
2022/09/11 11:34:24;;;;;;;;;;;;;;;39.01;17.79;98826.59;5012761;28;20346;-50
2022/09/11 11:36:52;;;;;;;;;;;;;;;38.91;17.26;98824.56;5012846;28;20350;-49
2022/09/11 11:39:25;;;;;;;;;;;;;;;38.84;17.54;98825.34;4996151;28;19976;-49
2022/09/11 11:42:11;;;;;;;;;;;;;;;38.86;17.55;98823.00;4996272;28;20361;-49
2022/09/11 11:44:44;;;;;;;;;;;;;;;38.78;17.87;98815.13;5012689;28;19925;-49
2022/09/11 11:47:14;;;;;;;;;;;;;;;39.04;18.20;98819.53;5012672;28;19922;-50
2022/09/11 11:49:58;;;;;;;;;;;;;;;39.19;17.42;98806.63;5012578;28;19921;-49
2022/09/11 11:52:38;;;;;;;;;;;;;;;39.05;17.89;98816.41;5012421;28;19930;-47
2022/09/11 11:55:06;;;;;;;;;;;;;;;39.13;18.09;98804.25;4996068;28;20012;-49
2022/09/11 11:57:37;;;;;;;;;;;;;;;39.33;17.60;98799.19;5024483;28;19921;-48
2022/09/11 12:00:08;;;;;;;;;;;;;;;39.26;17.60;98801.13;5034309;28;19917;-47
2022/09/11 12:02:55;;;;;;;;;;;;;;;39.10;17.67;98796.00;5034317;28;20015;-49
2022/09/11 12:05:25;;;;;;;;;;;;;;;38.72;17.76;98801.00;5033912;28;19920;-49
2022/09/11 12:07:51;;;;;;;;;;;;;;;39.05;17.65;98799.16;5034180;28;20455;-51
2022/09/11 12:10:21;;;;;;;;;;;;;;;39.07;17.73;98794.84;5034103;28;19917;-48
2022/09/11 12:12:48;;;;;;;;;;;;;;;39.05;17.70;98797.19;5032818;28;19925;-49
2022/09/11 12:15:20;;;;;;;;;;;;;;;38.93;17.93;98781.84;5034022;28;19921;-49
2022/09/11 12:17:48;;;;;;;;;;;;;;;38.80;17.99;98777.91;5032631;28;20352;-49
2022/09/11 12:20:25;;;;;;;;;;;;;;;38.74;17.82;98771.22;5033938;28;19921;-50
2022/09/11 12:22:50;;;;;;;;;;;;;;;38.48;17.88;98766.81;5034005;28;19939;-49
2022/09/11 12:25:22;;;;;;;;;;;;;;;38.13;18.48;98769.00;5036096;28;20386;-50
2022/09/11 12:27:52;;;;;;;;;;;;;;;38.33;18.14;98774.94;5053325;28;19917;-50
2022/09/11 12:30:17;;;;;;;;;;;;;;;38.33;18.26;98758.50;5053700;28;19921;-48
2022/09/11 12:32:47;;;;;;;;;;;;;;;38.43;17.86;98761.69;5052337;28;20276;-50
2022/09/11 12:35:28;;;;;;;;;;;;;;;38.54;17.88;98759.81;5052289;28;20012;-49
2022/09/11 12:38:01;;;;;;;;;;;;;;;38.29;18.45;98754.19;5053423;28;19924;-49
2022/09/11 12:40:37;;;;;;;;;;;;;;;38.13;18.03;98751.75;5053367;28;20015;-47
2022/09/11 12:43:25;;;;;;;;;;;;;;;38.05;18.26;98747.38;5053677;28;19979;-50
2022/09/11 12:45:50;;;;;;;;;;;;;;;37.83;18.26;98741.78;5052163;28;19917;-49
2022/09/11 12:48:19;;;;;;;;;;;;;;;37.54;18.28;98747.03;5053263;28;19986;-49
2022/09/11 12:50:54;;;;;;;;;;;;;;;37.22;18.54;98749.50;5053198;28;19920;-48
2022/09/11 12:53:31;;;;;;;;;;;;;;;36.78;18.72;98745.56;5053216;28;19923;-49
2022/09/11 12:56:01;;;;;;;;;;;;;;;36.15;19.66;98733.44;5051954;28;19924;-48
2022/09/11 12:58:32;;;;;;;;;;;;;;;35.82;20.03;98734.16;5051759;28;19916;-49